Time;durP1;ratioP1;P1;durP2;ratioP2;P2;SDS_P1;SDS_P2;PMS_P1;PMS_P2;Temp;Humidity;BMP_temperature;BMP_pressure;BME280_temperature;BME280_humidity;BME280_pressure;Samples;Min_cycle;Max_cycle;Signal;HPM_P1;HPM_P2
2024/03/12 00:00:17;;;;;;;4.88;2.42;;;;;;;7.51;63.56;96188.72;4955095;28;20110;-80
2024/03/12 00:02:44;;;;;;;5.88;3.15;;;;;;;7.51;63.80;96193.91;4954975;29;20062;-81
2024/03/12 00:05:13;;;;;;;9.82;4.68;;;;;;;7.51;63.43;96186.91;4955137;28;20059;-81
2024/03/12 00:07:43;;;;;;;9.20;5.13;;;;;;;7.53;64.89;96197.94;4954882;28;20098;-80
2024/03/12 00:10:15;;;;;;;12.85;4.63;;;;;;;7.59;63.95;96196.44;4958502;28;20134;-80
2024/03/12 00:12:47;;;;;;;8.93;3.80;;;;;;;7.58;64.09;96195.63;4958547;28;20109;-83
2024/03/12 00:15:17;;;;;;;10.93;4.95;;;;;;;7.59;64.05;96202.44;4957794;29;20415;-83
2024/03/12 00:17:44;;;;;;;13.50;4.60;;;;;;;7.62;65.36;96198.69;4957861;28;20130;-83
2024/03/12 00:20:17;;;;;;;21.17;6.43;;;;;;;7.68;64.46;96202.41;4957750;28;20423;-83
2024/03/12 00:22:47;;;;;;;13.68;6.38;;;;;;;7.75;67.16;96206.72;4957968;29;20075;-83
2024/03/12 00:25:15;;;;;;;28.25;12.65;;;;;;;7.80;65.91;96214.78;4958008;28;20415;-82
2024/03/12 00:27:43;;;;;;;13.00;6.03;;;;;;;7.79;64.46;96220.16;4957725;29;20094;-84
2024/03/12 00:30:13;;;;;;;5.97;3.47;;;;;;;7.73;63.89;96216.47;4957880;28;20047;-83
2024/03/12 00:32:41;;;;;;;4.53;2.60;;;;;;;7.68;64.05;96221.38;4973752;29;20059;-84
2024/03/12 00:35:10;;;;;;;9.57;2.60;;;;;;;7.67;63.83;96227.53;4978703;28;20047;-83
2024/03/12 00:37:39;;;;;;;3.88;2.15;;;;;;;7.69;63.92;96219.56;4978308;28;20507;-83
2024/03/12 00:40:11;;;;;;;4.57;3.00;;;;;;;7.68;64.13;96221.38;4964357;29;20126;-82
2024/03/12 00:42:39;;;;;;;4.65;2.70;;;;;;;7.69;65.24;96222.97;4971404;28;20051;-82
2024/03/12 00:45:11;;;;;;;5.35;3.15;;;;;;;7.72;64.92;96225.22;4966526;28;20147;-84
2024/03/12 00:47:40;;;;;;;4.10;3.35;;;;;;;7.79;67.04;96227.94;4960005;28;20489;-84
2024/03/12 00:50:11;;;;;;;4.30;3.25;;;;;;;7.89;66.80;96231.09;4958584;28;20044;-82
2024/03/12 00:52:40;;;;;;;4.50;3.40;;;;;;;7.94;65.72;96233.19;4958724;29;20054;-83
2024/03/12 00:55:10;;;;;;;5.88;3.78;;;;;;;7.91;65.38;96230.94;4960259;28;20097;-82
2024/03/12 00:57:38;;;;;;;4.72;2.78;;;;;;;7.88;65.24;96232.09;4957777;28;20102;-83
2024/03/12 01:00:16;;;;;;;8.85;4.28;;;;;;;7.92;67.38;96235.16;4957690;29;20047;-83
2024/03/12 01:02:48;;;;;;;5.53;4.15;;;;;;;7.94;66.04;96235.81;4957584;28;20086;-83
2024/03/12 01:05:17;;;;;;;9.25;4.88;;;;;;;7.92;66.09;96232.56;4957272;28;20047;-82
2024/03/12 01:07:47;;;;;;;7.30;4.65;;;;;;;7.92;65.82;96229.97;4957873;28;20125;-84
2024/03/12 01:10:20;;;;;;;4.85;3.50;;;;;;;7.96;66.41;96239.00;4957475;28;20074;-84
2024/03/12 01:12:48;;;;;;;3.90;2.83;;;;;;;7.98;66.07;96237.03;4957089;28;20090;-83
2024/03/12 01:15:18;;;;;;;5.68;2.65;;;;;;;7.98;66.24;96230.09;4956801;28;20091;-82
2024/03/12 01:17:45;;;;;;;4.00;3.40;;;;;;;7.99;66.18;96234.28;4957027;28;20522;-83
2024/03/12 01:20:16;;;;;;;4.15;2.78;;;;;;;7.98;66.29;96231.84;4956622;28;20102;-82
2024/03/12 01:22:44;;;;;;;4.80;3.22;;;;;;;7.95;66.61;96227.00;4956788;28;20051;-83
2024/03/12 01:25:14;;;;;;;3.67;2.60;;;;;;;7.93;66.71;96228.97;4956901;29;20089;-83
2024/03/12 01:27:43;;;;;;;3.72;3.08;;;;;;;7.92;66.60;96235.97;4955330;29;20047;-81
2024/03/12 01:30:16;;;;;;;5.90;2.85;;;;;;;7.92;66.59;96232.56;4954720;28;20080;-82
2024/03/12 01:32:44;;;;;;;4.38;3.25;;;;;;;7.91;66.67;96229.13;4954721;29;20165;-81
2024/03/12 01:35:12;;;;;;;3.88;2.72;;;;;;;7.90;66.76;96240.53;4954558;28;20048;-82
2024/03/12 01:37:42;;;;;;;3.08;2.80;;;;;;;7.90;66.46;96234.53;4954188;28;20051;-82
2024/03/12 01:40:21;;;;;;;5.82;3.97;;;;;;;7.87;66.80;96240.06;4954410;28;20141;-82
2024/03/12 01:42:51;;;;;;;5.40;3.53;;;;;;;7.91;69.08;96242.13;4955286;28;20534;-82
2024/03/12 01:45:24;;;;;;;5.97;4.13;;;;;;;8.01;67.54;96236.72;4956131;29;20051;-82
2024/03/12 01:47:53;;;;;;;5.05;3.40;;;;;;;8.02;66.75;96236.53;5007765;23;20046;-78
2024/03/12 01:50:21;;;;;;;4.18;3.40;;;;;;;7.99;67.00;96239.47;4994817;28;20058;-79
2024/03/12 01:52:53;;;;;;;3.30;2.92;;;;;;;8.00;67.96;96241.09;4995099;28;20083;-78
2024/03/12 01:55:21;;;;;;;4.68;3.70;;;;;;;8.05;68.81;96238.78;4994527;28;20097;-78
2024/03/12 01:57:51;;;;;;;4.93;3.03;;;;;;;8.13;69.15;96248.28;4979584;28;20158;-79
2024/03/12 02:00:21;;;;;;;7.38;4.68;;;;;;;8.20;69.97;96245.81;4975294;28;20051;-78
2024/03/12 02:02:52;;;;;;;8.90;5.57;;;;;;;8.17;67.87;96249.56;4975285;28;20074;-79
2024/03/12 02:05:20;;;;;;;8.90;5.70;;;;;;;8.14;68.06;96246.53;4974968;28;20053;-79
2024/03/12 02:07:50;;;;;;;8.00;5.00;;;;;;;8.09;67.71;96249.66;4975190;28;20094;-78
2024/03/12 02:10:19;;;;;;;6.05;4.53;;;;;;;8.02;68.29;96259.94;4975328;28;20053;-79
2024/03/12 02:12:47;;;;;;;4.80;3.72;;;;;;;7.93;67.13;96252.34;4974999;28;20097;-79
2024/03/12 02:15:17;;;;;;;5.75;3.83;;;;;;;7.86;66.98;96256.63;4974930;28;20046;-77
2024/03/12 02:17:47;;;;;;;5.20;3.47;;;;;;;7.84;66.95;96249.81;4975067;28;20113;-78
2024/03/12 02:20:15;;;;;;;3.30;3.00;;;;;;;7.79;66.67;96243.53;4974975;28;20046;-79
2024/03/12 02:22:43;;;;;;;4.00;3.03;;;;;;;7.72;66.59;96248.59;4974852;28;20065;-79
2024/03/12 02:25:13;;;;;;;3.38;2.85;;;;;;;7.67;66.47;96255.28;4974628;28;20051;-79
2024/03/12 02:27:40;;;;;;;7.72;3.40;;;;;;;7.60;66.58;96255.16;4974436;28;20070;-79
2024/03/12 02:30:09;;;;;;;3.72;3.17;;;;;;;7.50;66.63;96257.97;4975018;28;20054;-79
2024/03/12 02:32:38;;;;;;;4.53;3.58;;;;;;;7.43;66.68;96260.44;4974339;28;20062;-79
2024/03/12 02:35:10;;;;;;;5.13;3.45;;;;;;;7.37;66.60;96261.13;4974571;28;20050;-79
2024/03/12 02:37:38;;;;;;;5.38;3.05;;;;;;;7.33;67.15;96270.22;4974440;28;20133;-79
2024/03/12 02:40:12;;;;;;;3.80;3.30;;;;;;;7.32;66.76;96268.59;4975067;28;20058;-79
2024/03/12 02:42:42;;;;;;;3.72;3.10;;;;;;;7.27;67.00;96270.09;4974948;28;20053;-79
2024/03/12 02:45:14;;;;;;;5.57;3.60;;;;;;;7.26;67.00;96266.69;4974588;28;20049;-79
2024/03/12 02:47:42;;;;;;;4.47;3.38;;;;;;;7.25;66.72;96272.84;4974384;28;20054;-79
2024/03/12 02:50:10;;;;;;;5.22;3.90;;;;;;;7.22;66.78;96268.00;4974477;28;20133;-78
2024/03/12 02:52:38;;;;;;;5.13;4.38;;;;;;;7.20;67.05;96275.16;4974424;28;20051;-79
2024/03/12 02:55:06;;;;;;;6.07;3.17;;;;;;;7.20;67.09;96272.56;4974385;28;20059;-78
2024/03/12 02:57:34;;;;;;;3.67;3.08;;;;;;;7.19;66.68;96270.91;4974546;28;20042;-78
2024/03/12 03:00:11;;;;;;;4.18;3.17;;;;;;;7.17;67.12;96275.47;4974000;28;20054;-78
2024/03/12 03:02:39;;;;;;;4.22;3.40;;;;;;;7.12;67.18;96273.38;4974011;28;20502;-79
2024/03/12 03:05:09;;;;;;;4.20;3.40;;;;;;;7.12;66.87;96277.75;4974197;28;20055;-79
2024/03/12 03:07:37;;;;;;;5.30;2.88;;;;;;;7.11;67.25;96281.34;4974217;28;20070;-79
2024/03/12 03:10:06;;;;;;;3.90;3.17;;;;;;;7.13;67.11;96279.41;4974310;28;20055;-78
2024/03/12 03:12:34;;;;;;;6.10;3.15;;;;;;;7.13;66.80;96276.81;4974448;28;20058;-79
2024/03/12 03:15:01;;;;;;;3.15;2.90;;;;;;;7.11;66.96;96276.97;4974004;28;20046;-79
2024/03/12 03:17:30;;;;;;;4.13;2.70;;;;;;;7.12;67.23;96281.16;4974047;28;20043;-80
2024/03/12 03:19:58;;;;;;;3.03;2.70;;;;;;;7.10;66.80;96274.53;4973952;28;20050;-79
2024/03/12 03:22:25;;;;;;;7.50;3.72;;;;;;;7.05;66.85;96277.63;4974037;28;20503;-78
2024/03/12 03:24:53;;;;;;;6.63;3.83;;;;;;;7.01;66.81;96290.09;4973788;28;20050;-79
2024/03/12 03:27:21;;;;;;;3.80;3.00;;;;;;;6.98;66.64;96287.84;4973766;28;20054;-78
2024/03/12 03:29:48;;;;;;;5.47;3.25;;;;;;;6.94;67.03;96289.16;4973893;28;20454;-79
2024/03/12 03:32:16;;;;;;;4.07;3.40;;;;;;;6.90;67.17;96294.84;4977711;28;20051;-79
2024/03/12 03:34:45;;;;;;;3.45;2.70;;;;;;;6.90;66.97;96295.66;4980705;28;20110;-79
2024/03/12 03:37:13;;;;;;;5.43;3.05;;;;;;;6.88;67.16;96292.41;4982470;28;20079;-78
2024/03/12 03:39:41;;;;;;;4.65;3.55;;;;;;;6.87;67.17;96290.81;4974216;28;20050;-78
2024/03/12 03:42:09;;;;;;;3.28;2.88;;;;;;;6.84;67.06;96293.72;4973771;28;20507;-79
2024/03/12 03:44:36;;;;;;;5.50;3.58;;;;;;;6.84;67.21;96298.91;4976389;28;20058;-78
2024/03/12 03:47:04;;;;;;;4.95;3.13;;;;;;;6.83;67.21;96294.72;4977694;28;20082;-79
2024/03/12 03:49:32;;;;;;;4.03;3.13;;;;;;;6.80;67.14;96298.44;4978043;28;20046;-79
2024/03/12 03:52:01;;;;;;;6.10;3.53;;;;;;;6.78;67.31;96315.94;4977913;28;20507;-79
2024/03/12 03:54:28;;;;;;;3.40;3.10;;;;;;;6.78;67.96;96315.16;4977571;28;20057;-78
2024/03/12 03:56:56;;;;;;;6.15;3.53;;;;;;;6.78;67.33;96318.53;4977419;28;20324;-79
2024/03/12 03:59:25;;;;;;;8.07;3.53;;;;;;;6.74;66.83;96316.44;4977562;28;20134;-79
2024/03/12 04:01:55;;;;;;;6.60;3.35;;;;;;;6.70;66.80;96325.50;4977849;28;20050;-78
2024/03/12 04:04:22;;;;;;;9.27;3.13;;;;;;;6.68;67.08;96324.88;4977356;28;20515;-79
2024/03/12 04:06:51;;;;;;;5.15;2.90;;;;;;;6.65;67.04;96322.59;4977391;28;20051;-79
2024/03/12 04:09:25;;;;;;;4.85;3.28;;;;;;;6.64;67.00;96336.53;4977526;28;20083;-79
2024/03/12 04:11:53;;;;;;;4.45;2.90;;;;;;;6.60;66.95;96334.28;4977630;28;20050;-79
2024/03/12 04:14:21;;;;;;;7.28;3.13;;;;;;;6.55;67.18;96344.31;4977326;28;20109;-79
2024/03/12 04:16:48;;;;;;;5.95;3.15;;;;;;;6.52;67.08;96349.03;4977324;28;20551;-79
2024/03/12 04:19:16;;;;;;;8.80;5.32;;;;;;;6.47;66.93;96352.09;4977390;28;20054;-79
2024/03/12 04:21:44;;;;;;;5.72;4.30;;;;;;;6.40;67.23;96357.09;4977274;28;20046;-79
2024/03/12 04:24:13;;;;;;;5.55;4.10;;;;;;;6.35;67.06;96363.75;4977509;28;20073;-79
2024/03/12 04:26:45;;;;;;;5.25;3.35;;;;;;;6.31;67.47;96362.44;4976969;28;20077;-78
2024/03/12 04:29:13;;;;;;;4.67;3.47;;;;;;;6.31;67.49;96358.06;4977053;28;20043;-78
2024/03/12 04:31:40;;;;;;;4.72;3.50;;;;;;;6.29;67.56;96360.00;4977199;28;20414;-79
2024/03/12 04:34:08;;;;;;;4.90;2.80;;;;;;;6.31;67.92;96370.22;4977207;28;20090;-79
2024/03/12 04:36:36;;;;;;;6.32;3.53;;;;;;;6.35;67.69;96374.91;4978277;28;20055;-79
2024/03/12 04:39:30;;;;;;;3.72;3.30;;;;;;;6.38;67.81;96374.59;4980023;28;20051;-79
2024/03/12 04:42:01;;;;;;;4.25;2.97;;;;;;;6.41;68.20;96383.84;4981733;28;20057;-79
2024/03/12 04:44:30;;;;;;;3.47;3.05;;;;;;;6.42;67.66;96384.63;4980066;28;20070;-79
2024/03/12 04:46:57;;;;;;;5.25;3.30;;;;;;;6.44;68.15;96386.09;4989654;28;20549;-79
2024/03/12 04:49:25;;;;;;;4.68;3.17;;;;;;;6.48;68.31;96386.59;4993875;28;20050;-79
2024/03/12 04:51:53;;;;;;;4.38;2.83;;;;;;;6.56;68.20;96389.19;4997708;28;20047;-78
2024/03/12 04:54:21;;;;;;;5.13;3.17;;;;;;;6.59;68.04;96381.88;4991720;28;20081;-79
2024/03/12 04:56:50;;;;;;;5.13;3.10;;;;;;;6.60;67.82;96388.72;4979706;28;20423;-79
2024/03/12 04:59:19;;;;;;;3.60;3.03;;;;;;;6.62;67.98;96388.53;4978726;28;20561;-79
2024/03/12 05:01:48;;;;;;;3.83;3.22;;;;;;;6.63;67.56;96394.53;4978314;28;20098;-79
2024/03/12 05:04:17;;;;;;;5.00;3.58;;;;;;;6.60;67.40;96391.28;4977943;28;20529;-78
2024/03/12 05:06:50;;;;;;;5.50;3.17;;;;;;;6.56;67.44;96395.19;4977444;28;20082;-78
2024/03/12 05:09:18;;;;;;;4.07;2.58;;;;;;;6.53;67.81;96398.06;4977719;28;20050;-79
2024/03/12 05:11:46;;;;;;;4.72;3.25;;;;;;;6.51;67.91;96396.63;4976863;28;20051;-79
2024/03/12 05:14:13;;;;;;;5.80;3.08;;;;;;;6.50;67.95;96407.97;4976944;28;20430;-78
2024/03/12 05:16:42;;;;;;;5.25;2.90;;;;;;;6.53;68.65;96413.63;4977272;28;20051;-79
2024/03/12 05:19:10;;;;;;;5.50;3.55;;;;;;;6.57;68.39;96414.94;4977438;28;20072;-78
2024/03/12 05:21:39;;;;;;;8.10;3.38;;;;;;;6.60;68.37;96412.03;4976968;28;20055;-78
2024/03/12 05:24:07;;;;;;;4.25;3.53;;;;;;;6.67;70.14;96421.72;4977022;28;20105;-79
2024/03/12 05:26:43;;;;;;;6.38;3.65;;;;;;;6.80;71.10;96422.88;4976711;28;20109;-79
2024/03/12 05:29:11;;;;;;;12.80;4.57;;;;;;;6.93;70.76;96422.41;4976343;28;20565;-79
2024/03/12 05:31:39;;;;;;;10.80;4.65;;;;;;;6.98;69.78;96422.72;4976392;28;20090;-79
2024/03/12 05:34:15;;;;;;;8.02;5.20;;;;;;;7.01;71.17;96427.56;4976424;28;20057;-79
2024/03/12 05:36:48;;;;;;;6.38;4.72;;;;;;;7.08;69.82;96432.09;4976226;28;20055;-79
2024/03/12 05:39:20;;;;;;;7.80;4.70;;;;;;;7.11;70.61;96432.59;4976170;28;20073;-77
2024/03/12 05:48:07;;;;;;;6.77;4.43;;;;;;;7.10;69.24;96435.34;4976490;28;20052;-79
2024/03/12 05:49:56;;;;;;;5.45;3.47;;;;;;;6.93;68.31;96429.34;4996593;28;20039;-80
2024/03/12 05:52:29;;;;;;;5.13;3.28;;;;;;;6.89;68.41;96431.47;4997134;28;20034;-79
2024/03/12 05:54:59;;;;;;;7.30;3.50;;;;;;;6.88;68.37;96435.03;4986028;28;20039;-79
2024/03/12 05:57:28;;;;;;;5.53;3.67;;;;;;;6.86;68.37;96441.34;4976029;28;20414;-79
2024/03/12 05:59:55;;;;;;;7.10;4.10;;;;;;;6.90;70.02;96445.25;4976069;28;20074;-79
2024/03/12 06:02:26;;;;;;;5.05;3.50;;;;;;;6.96;69.39;96445.41;4980247;28;20046;-80
2024/03/12 06:04:55;;;;;;;7.68;4.15;;;;;;;7.00;70.58;96446.69;4999474;28;20058;-80
2024/03/12 06:07:24;;;;;;;12.00;4.88;;;;;;;7.06;70.33;96450.41;4996569;28;20043;-79
2024/03/12 06:09:52;;;;;;;7.38;5.10;;;;;;;7.09;70.04;96454.47;4996777;28;20046;-80
2024/03/12 06:12:20;;;;;;;9.13;4.70;;;;;;;7.13;70.01;96456.59;4976691;28;20078;-79
2024/03/12 06:14:47;;;;;;;11.50;6.95;;;;;;;7.19;69.29;96465.47;4976150;28;20125;-80
2024/03/12 06:17:15;;;;;;;12.80;5.88;;;;;;;7.20;68.56;96467.13;4987896;28;20047;-80
2024/03/12 06:19:43;;;;;;;8.63;5.93;;;;;;;7.22;68.82;96462.56;4981100;28;20054;-79
2024/03/12 06:22:11;;;;;;;6.97;4.63;;;;;;;7.18;68.65;96471.66;4977751;28;20054;-81
2024/03/12 06:24:41;;;;;;;6.45;4.60;;;;;;;7.12;68.74;96467.13;4979012;28;20063;-80
2024/03/12 06:27:09;;;;;;;7.43;4.60;;;;;;;7.06;68.91;96465.16;4976195;28;20089;-80
2024/03/12 06:29:36;;;;;;;8.25;4.75;;;;;;;7.01;68.93;96474.25;4976062;28;20101;-80
2024/03/12 06:32:05;;;;;;;7.30;4.82;;;;;;;7.01;68.78;96482.03;4979753;28;20047;-79
2024/03/12 06:34:32;;;;;;;8.77;4.50;;;;;;;7.01;68.71;96482.03;4976193;28;20093;-79
2024/03/12 06:37:00;;;;;;;6.35;5.07;;;;;;;7.05;69.01;96481.72;4977982;28;20497;-80
2024/03/12 06:39:31;;;;;;;13.18;7.00;;;;;;;7.05;68.68;96479.13;4975497;28;20050;-80
2024/03/12 06:42:02;;;;;;;9.85;6.13;;;;;;;7.08;69.69;96489.16;4976494;28;20565;-79
2024/03/12 06:44:40;;;;;;;9.13;6.43;;;;;;;7.18;70.87;96490.63;4997008;28;20102;-79
2024/03/12 06:47:09;;;;;;;11.00;6.13;;;;;;;7.26;70.42;96495.00;4997006;28;20098;-79
2024/03/12 06:49:37;;;;;;;14.93;6.47;;;;;;;7.36;70.34;96497.41;4988608;28;20051;-80
2024/03/12 06:52:06;;;;;;;11.68;6.80;;;;;;;7.41;71.31;96495.97;4973078;28;20183;-80
2024/03/12 06:54:35;;;;;;;9.68;5.53;;;;;;;7.50;71.27;96503.72;4973261;28;20070;-80
2024/03/12 06:57:06;;;;;;;10.57;5.53;;;;;;;7.53;69.58;96506.81;4973268;28;20054;-80
2024/03/12 06:59:34;;;;;;;9.23;5.40;;;;;;;7.58;69.76;96508.91;4975479;28;20051;-80
2024/03/12 07:02:03;;;;;;;5.50;4.50;;;;;;;7.68;69.07;96508.75;4975329;28;20153;-80
2024/03/12 07:04:43;;;;;;;8.80;4.72;;;;;;;7.69;68.73;96508.56;4974489;28;20046;-80
2024/03/12 07:07:13;;;;;;;7.57;5.00;;;;;;;7.77;70.25;96512.94;4974431;28;20050;-80
2024/03/12 07:09:42;;;;;;;10.07;5.35;;;;;;;7.86;70.16;96513.72;4977375;28;20051;-79
2024/03/12 07:12:14;;;;;;;7.45;4.55;;;;;;;7.93;70.15;96509.47;4975597;28;20062;-80
2024/03/12 07:14:42;;;;;;;8.18;4.20;;;;;;;8.00;70.09;96513.00;4974819;28;20503;-79
2024/03/12 07:17:10;;;;;;;4.18;3.33;;;;;;;8.07;70.21;96516.59;4981943;28;20142;-80
2024/03/12 07:19:38;;;;;;;4.40;3.65;;;;;;;8.14;68.55;96520.13;4979845;28;20105;-80
2024/03/12 07:22:07;;;;;;;4.63;3.00;;;;;;;8.18;69.21;96518.81;4979716;28;20075;-80
2024/03/12 07:24:35;;;;;;;6.45;3.38;;;;;;;8.27;68.94;96521.38;4975139;28;20101;-80
2024/03/12 07:27:04;;;;;;;4.68;3.03;;;;;;;8.26;68.29;96525.75;4974272;28;20514;-80
2024/03/12 07:29:33;;;;;;;4.38;2.58;;;;;;;8.25;68.73;96524.13;4974030;28;20097;-80
2024/03/12 07:32:02;;;;;;;4.45;2.83;;;;;;;8.28;68.48;96523.78;4973946;28;20138;-80
2024/03/12 07:34:30;;;;;;;7.20;2.88;;;;;;;8.33;68.01;96516.31;4973930;28;20097;-80
2024/03/12 07:36:58;;;;;;;5.60;2.28;;;;;;;8.39;68.61;96510.41;4974015;28;20051;-81
2024/03/12 07:39:31;;;;;;;5.95;2.50;;;;;;;8.48;67.96;96513.00;4974378;28;20047;-80
2024/03/12 07:42:00;;;;;;;5.30;2.50;;;;;;;8.56;69.10;96521.56;4974092;28;20078;-80
2024/03/12 07:44:27;;;;;;;2.88;2.22;;;;;;;8.60;68.20;96522.06;4973770;28;20198;-80
2024/03/12 07:47:24;;;;;;;3.10;2.28;;;;;;;8.57;67.09;96518.00;4974186;28;20477;-81
2024/03/12 07:50:02;;;;;;;3.83;2.35;;;;;;;8.62;68.85;96520.91;4972711;28;20054;-81
2024/03/12 07:53:26;;;;;;;3.63;2.40;;;;;;;8.73;68.92;96521.50;4974510;28;20054;-81
2024/03/12 08:06:53;;;;;;;3.20;2.67;;;;;;;8.93;67.29;96533.06;5266150;23;20078;-79
2024/03/12 08:09:21;;;;;;;3.15;2.65;;;;;;;9.00;67.05;96531.38;4953976;29;20360;-80
2024/03/12 08:11:51;;;;;;;2.67;2.03;;;;;;;9.04;66.29;96531.84;4954166;29;20079;-80
2024/03/12 08:14:19;;;;;;;2.97;2.10;;;;;;;9.05;65.71;96536.06;4954416;29;20066;-80
2024/03/12 08:16:49;;;;;;;3.75;2.03;;;;;;;9.09;65.92;96539.94;4954087;28;20062;-80
2024/03/12 08:19:16;;;;;;;2.60;2.25;;;;;;;9.16;66.74;96534.84;4996514;23;20081;-80
2024/03/12 08:21:45;;;;;;;6.32;2.65;;;;;;;9.17;65.83;96539.09;4993678;28;20506;-80
2024/03/12 08:24:14;;;;;;;3.13;1.80;;;;;;;9.16;65.78;96547.88;4993303;28;20514;-80
2024/03/12 08:26:42;;;;;;;2.85;1.70;;;;;;;9.18;65.68;96541.53;4993390;28;20525;-80
2024/03/12 08:29:11;;;;;;;5.63;2.20;;;;;;;9.19;66.03;96543.13;4977961;28;20054;-80
2024/03/12 08:31:39;;;;;;;5.43;1.50;;;;;;;9.20;64.89;96544.72;4977367;28;20051;-81
2024/03/12 08:34:18;;;;;;;3.65;2.03;;;;;;;9.21;64.83;96546.38;4976990;28;20130;-82
2024/03/12 08:36:47;;;;;;;5.55;2.28;;;;;;;9.23;65.13;96548.81;4976647;28;20054;-82
2024/03/12 08:39:16;;;;;;;4.47;1.48;;;;;;;9.23;65.47;96549.63;4976902;28;20407;-82
2024/03/12 08:41:44;;;;;;;2.58;1.85;;;;;;;9.25;64.62;96545.03;4977077;28;20412;-82
2024/03/12 08:44:13;;;;;;;2.47;1.70;;;;;;;9.27;64.55;96544.84;4977873;28;20514;-82
2024/03/12 08:46:41;;;;;;;3.53;1.80;;;;;;;9.26;64.45;96551.06;4994956;28;20051;-82
2024/03/12 08:49:10;;;;;;;3.30;1.90;;;;;;;9.27;64.80;96560.47;4977314;28;20134;-81
2024/03/12 08:51:39;;;;;;;2.95;1.63;;;;;;;9.25;64.40;96563.25;4976644;28;20073;-82
2024/03/12 08:54:08;;;;;;;2.75;1.88;;;;;;;9.22;63.76;96568.00;4976706;28;20050;-82
2024/03/12 08:56:37;;;;;;;2.05;1.85;;;;;;;9.16;63.98;96563.47;4976986;28;20061;-81
2024/03/12 08:59:06;;;;;;;1.88;1.60;;;;;;;9.15;64.45;96573.09;4977187;28;20114;-82
2024/03/12 09:01:34;;;;;;;2.25;1.90;;;;;;;9.19;64.78;96565.75;4977184;28;20090;-82
2024/03/12 09:04:02;;;;;;;3.05;2.17;;;;;;;9.23;64.34;96572.22;4995484;28;20119;-82
2024/03/12 09:06:32;;;;;;;2.58;1.80;;;;;;;9.28;64.91;96573.31;4999963;28;20111;-82
2024/03/12 09:09:00;;;;;;;2.88;2.15;;;;;;;9.32;64.51;96572.97;4984509;28;20484;-81
2024/03/12 09:11:28;;;;;;;1.90;1.65;;;;;;;9.36;64.25;96576.81;4977599;28;20054;-82
2024/03/12 09:13:57;;;;;;;1.95;1.52;;;;;;;9.35;63.83;96581.25;4976659;28;20054;-82
2024/03/12 09:16:24;;;;;;;1.90;1.70;;;;;;;9.34;63.51;96574.41;4976998;28;20055;-81
2024/03/12 09:18:53;;;;;;;2.78;1.67;;;;;;;9.31;63.84;96579.97;4976540;28;20109;-82
2024/03/12 09:21:22;;;;;;;1.92;1.80;;;;;;;9.31;64.07;96574.75;4976479;28;20490;-81
2024/03/12 09:23:49;;;;;;;3.03;1.88;;;;;;;9.32;63.46;96581.59;4976171;28;20078;-82
2024/03/12 09:26:28;;;;;;;1.73;1.60;;;;;;;9.25;64.74;96575.47;4976351;28;20046;-82
2024/03/12 09:28:59;;;;;;;2.30;1.70;;;;;;;9.26;65.02;96582.28;4976205;28;20054;-82
2024/03/12 09:31:27;;;;;;;2.80;1.58;;;;;;;9.23;63.99;96585.25;4976838;28;20121;-82
2024/03/12 09:33:55;;;;;;;2.53;1.48;;;;;;;9.23;64.29;96585.25;4976357;28;20145;-81
2024/03/12 09:36:24;;;;;;;2.75;1.65;;;;;;;9.27;64.28;96586.50;4975942;28;20058;-81
2024/03/12 09:38:53;;;;;;;2.67;1.70;;;;;;;9.28;64.84;96588.13;4975733;28;20050;-81
2024/03/12 09:41:24;;;;;;;2.30;1.67;;;;;;;9.31;64.00;96585.16;4974701;28;20084;-82
2024/03/12 09:43:53;;;;;;;2.95;1.83;;;;;;;9.38;64.26;96587.88;4975584;28;20082;-82
2024/03/12 09:46:23;;;;;;;1.92;1.50;;;;;;;9.38;64.18;96588.72;4975649;28;20139;-81
2024/03/12 09:48:52;;;;;;;4.60;2.30;;;;;;;9.38;64.45;96593.09;4975969;28;20141;-82
2024/03/12 09:51:21;;;;;;;2.70;1.90;;;;;;;9.36;64.77;96592.44;4975468;28;20102;-82
2024/03/12 09:53:51;;;;;;;1.70;1.48;;;;;;;9.36;64.71;96601.09;4975360;28;20057;-81
2024/03/12 09:56:20;;;;;;;2.05;1.52;;;;;;;9.36;64.84;96601.09;4975472;28;20562;-81
2024/03/12 09:58:48;;;;;;;1.95;1.77;;;;;;;9.37;64.98;96607.09;4975266;28;20109;-82
2024/03/12 10:01:16;;;;;;;2.13;1.92;;;;;;;9.40;65.04;96607.56;4975421;28;20054;-82
2024/03/12 10:03:46;;;;;;;3.05;1.40;;;;;;;9.42;65.25;96616.03;4975599;28;20134;-81
2024/03/12 10:06:16;;;;;;;3.88;1.83;;;;;;;9.41;65.13;96609.19;4975807;28;20054;-81
2024/03/12 10:08:45;;;;;;;1.95;1.60;;;;;;;9.39;65.20;96615.56;4975538;28;20058;-82
2024/03/12 10:11:19;;;;;;;2.08;1.88;;;;;;;9.39;66.07;96621.56;4975415;28;20047;-82
2024/03/12 10:13:54;;;;;;;1.70;1.50;;;;;;;9.40;66.21;96625.81;4975684;28;20057;-81
2024/03/12 10:16:24;;;;;;;1.95;1.60;;;;;;;9.41;65.97;96624.81;4975078;28;20113;-81
2024/03/12 10:19:09;;;;;;;2.65;1.95;;;;;;;9.44;66.83;96628.84;4975099;28;20046;-82
2024/03/12 10:21:37;;;;;;;2.25;2.05;;;;;;;9.37;66.31;96628.72;4975356;28;20059;-82
2024/03/12 10:24:13;;;;;;;1.75;1.65;;;;;;;9.38;66.88;96640.78;4975114;28;20054;-81
2024/03/12 10:26:42;;;;;;;2.70;1.98;;;;;;;9.34;67.17;96634.28;4974987;28;20054;-81
2024/03/12 10:29:11;;;;;;;2.03;1.83;;;;;;;9.30;67.03;96633.03;4975249;28;20050;-81
2024/03/12 10:31:43;;;;;;;2.28;1.90;;;;;;;9.27;67.04;96638.56;4974932;28;20498;-81
2024/03/12 10:34:17;;;;;;;2.05;1.70;;;;;;;9.30;67.65;96643.44;4996721;28;20038;-82
2024/03/12 10:36:46;;;;;;;2.42;1.70;;;;;;;9.31;67.01;96642.44;4996668;28;20051;-83
2024/03/12 10:39:25;;;;;;;1.90;1.45;;;;;;;9.32;66.75;96641.47;4997101;28;20047;-83
2024/03/12 10:41:56;;;;;;;5.57;2.13;;;;;;;9.35;67.18;96640.31;4982721;28;20105;-81
2024/03/12 10:44:24;;;;;;;4.20;1.63;;;;;;;9.34;66.64;96641.31;4975549;28;20125;-82
2024/03/12 10:46:52;;;;;;;2.75;1.88;;;;;;;9.30;66.96;96643.44;4975211;28;20502;-81
2024/03/12 10:49:22;;;;;;;1.85;1.75;;;;;;;9.29;67.02;96641.78;4974884;28;20089;-82
2024/03/12 10:51:54;;;;;;;2.65;1.77;;;;;;;9.28;66.49;96648.00;4974752;28;20058;-81
2024/03/12 10:54:23;;;;;;;1.70;1.40;;;;;;;9.26;67.06;96644.75;4988559;28;20034;-81
2024/03/12 10:56:51;;;;;;;4.55;1.88;;;;;;;9.27;66.78;96649.78;4978364;28;20059;-82
2024/03/12 10:59:21;;;;;;;3.47;1.65;;;;;;;9.29;67.14;96652.22;4974533;28;20054;-82
2024/03/12 11:01:48;;;;;;;1.30;1.20;;;;;;;9.34;66.67;96646.50;4974492;28;20507;-81
2024/03/12 11:04:17;;;;;;;3.92;1.50;;;;;;;9.38;66.21;96660.78;4974671;28;20047;-82
2024/03/12 11:06:48;;;;;;;2.33;1.60;;;;;;;9.41;66.90;96658.66;4974646;28;20446;-82
2024/03/12 11:09:21;;;;;;;1.65;1.30;;;;;;;9.44;66.41;96658.28;4974085;28;20061;-81
2024/03/12 11:11:49;;;;;;;1.13;1.02;;;;;;;9.49;66.37;96653.41;4975089;28;20415;-82
2024/03/12 11:14:17;;;;;;;1.80;1.40;;;;;;;9.52;65.81;96660.03;4974318;28;20051;-82
2024/03/12 11:16:45;;;;;;;1.45;1.33;;;;;;;9.48;65.53;96651.75;4973765;28;20138;-81
2024/03/12 11:19:20;;;;;;;2.08;1.20;;;;;;;9.43;64.91;96658.50;4974594;28;20114;-83
2024/03/12 11:21:51;;;;;;;3.45;1.60;;;;;;;9.39;65.99;96655.41;4974203;28;20051;-82
2024/03/12 11:24:26;;;;;;;3.25;1.70;;;;;;;9.40;66.18;96658.81;4974225;28;20098;-82
2024/03/12 11:26:54;;;;;;;3.38;1.60;;;;;;;9.42;66.15;96655.09;4973917;28;20141;-81
2024/03/12 11:29:55;;;;;;;1.58;1.27;;;;;;;9.46;65.46;96664.13;4973963;28;20069;-81
2024/03/12 11:32:23;;;;;;;1.98;1.60;;;;;;;9.45;65.54;96659.94;4973924;28;20133;-81
2024/03/12 11:34:51;;;;;;;2.53;1.73;;;;;;;9.39;65.51;96671.03;4973948;28;20051;-82
2024/03/12 11:37:20;;;;;;;3.05;1.58;;;;;;;9.36;66.15;96666.19;4973869;28;20081;-81
2024/03/12 11:40:26;;;;;;;2.40;1.58;;;;;;;9.41;66.45;96670.88;4974022;28;20065;-82
2024/03/12 11:42:55;;;;;;;6.80;2.78;;;;;;;9.43;65.45;96668.91;4974026;28;20441;-81
2024/03/12 11:45:37;;;;;;;2.08;1.70;;;;;;;9.42;65.78;96657.69;4973406;28;20046;-81
2024/03/12 11:48:07;;;;;;;4.75;2.30;;;;;;;9.38;65.19;96666.81;4973760;28;20109;-82
2024/03/12 11:50:36;;;;;;;4.03;2.40;;;;;;;9.37;65.79;96670.38;4973768;28;20055;-82
2024/03/12 11:53:18;;;;;;;4.15;2.85;;;;;;;9.36;65.57;96663.56;4973668;28;20047;-82
2024/03/12 11:55:54;;;;;;;4.05;2.38;;;;;;;9.37;67.32;96667.78;4973591;28;20055;-82
2024/03/12 11:58:27;;;;;;;3.25;2.10;;;;;;;9.38;65.90;96666.81;4973276;28;20061;-81
2024/03/12 12:00:55;;;;;;;4.60;2.13;;;;;;;9.36;65.96;96653.16;4973663;28;20517;-81
2024/03/12 12:03:23;;;;;;;3.40;2.95;;;;;;;9.38;66.06;96660.78;4974694;28;20055;-82
2024/03/12 12:05:52;;;;;;;3.13;2.00;;;;;;;9.42;66.95;96655.09;4981761;28;20078;-81
2024/03/12 12:08:21;;;;;;;4.55;2.25;;;;;;;9.47;66.59;96662.38;4977554;28;20089;-81
2024/03/12 12:11:00;;;;;;;6.03;2.42;;;;;;;9.50;66.36;96664.63;4978455;28;20078;-81